createdAt,value
2018-08-04T00:01:34.351Z,61.67
2018-08-04T00:04:03.887Z,61.07
2018-08-04T00:06:35.082Z,60.63
2018-08-04T00:09:07.358Z,60.67
2018-08-04T00:11:36.590Z,60.48
2018-08-04T00:14:06.171Z,62.58
2018-08-04T00:16:35.382Z,62.62
2018-08-04T00:19:04.648Z,60.71
2018-08-04T00:21:34.204Z,60.87
2018-08-04T00:24:04.419Z,60.24
2018-08-04T00:26:34.198Z,61.25
2018-08-04T00:29:04.035Z,61.43
2018-08-04T00:31:33.966Z,61.73
2018-08-04T00:34:03.165Z,61.76
2018-08-04T00:36:32.707Z,63.33
2018-08-04T00:39:01.914Z,62.21
2018-08-04T00:41:31.114Z,63.45
2018-08-04T00:44:00.283Z,63.49
2018-08-04T00:46:29.487Z,63.85
2018-08-04T00:48:58.667Z,64.78
2018-08-04T00:51:27.891Z,63.35
2018-08-04T00:53:57.224Z,63.67
2018-08-04T00:56:26.410Z,63.27
2018-08-04T00:58:55.614Z,63.79
2018-08-04T01:01:25.011Z,64.34
2018-08-04T01:03:54.250Z,63.89
2018-08-04T01:06:23.435Z,64.56
2018-08-04T01:08:52.644Z,65.13
2018-08-04T01:11:22.201Z,65.10
2018-08-04T01:13:51.427Z,64.50
2018-08-04T01:16:20.638Z,64.64
2018-08-04T01:18:49.822Z,64.76
2018-08-04T01:21:19.454Z,64.61
2018-08-04T01:23:48.680Z,63.43
2018-08-04T01:26:18.206Z,63.72
2018-08-04T01:28:47.593Z,64.01
2018-08-04T01:31:16.808Z,64.47
2018-08-04T01:33:45.975Z,64.68
2018-08-04T01:36:15.209Z,65.36
2018-08-04T01:38:44.602Z,64.32
2018-08-04T01:41:13.815Z,64.94
2018-08-04T01:43:43.191Z,63.49
2018-08-04T01:46:12.401Z,64.44
2018-08-04T01:48:41.581Z,65.16
2018-08-04T01:51:10.855Z,65.52
2018-08-04T01:53:40.002Z,65.07
2018-08-04T01:56:09.210Z,65.82
2018-08-04T01:58:38.398Z,66.46
2018-08-04T02:01:07.592Z,66.47
2018-08-04T02:03:36.795Z,66.96
2018-08-04T02:06:05.999Z,67.83
2018-08-04T02:08:35.191Z,67.07
2018-08-04T02:11:04.743Z,66.82
2018-08-04T02:13:34.154Z,65.70
2018-08-04T02:16:03.366Z,66.55
2018-08-04T02:18:32.579Z,64.49
2018-08-04T02:21:01.747Z,64.47
2018-08-04T02:23:31.398Z,64.75
2018-08-04T02:26:00.711Z,64.72
2018-08-04T02:28:29.895Z,64.09
2018-08-04T02:30:59.207Z,65.66
2018-08-04T02:33:28.711Z,64.63
2018-08-04T02:35:57.925Z,64.41
2018-08-04T02:38:27.079Z,65.13
2018-08-04T02:40:56.283Z,64.57
2018-08-04T02:43:25.655Z,64.01
2018-08-04T02:45:55.227Z,64.07
2018-08-04T02:48:24.407Z,64.19
2018-08-04T02:50:54.422Z,65.15
2018-08-04T02:53:23.896Z,65.53
2018-08-04T02:55:53.248Z,66.52
2018-08-04T02:58:22.421Z,65.49
2018-08-04T03:00:51.646Z,66.18
2018-08-04T03:03:21.200Z,64.86
2018-08-04T03:05:50.528Z,65.63
2018-08-04T03:08:19.774Z,65.94
2018-08-04T03:10:49.001Z,66.59
2018-08-04T03:13:18.598Z,66.22
2018-08-04T03:15:47.788Z,66.25
2018-08-04T03:18:17.335Z,65.11
2018-08-04T03:20:46.529Z,65.12
2018-08-04T03:23:15.720Z,65.37
2018-08-04T03:25:45.715Z,65.71
2018-08-04T03:28:14.885Z,64.65
2018-08-04T03:30:44.295Z,64.84
2018-08-04T03:33:13.495Z,65.30
2018-08-04T03:35:43.630Z,65.52
2018-08-04T03:38:12.855Z,65.00
2018-08-04T03:40:42.071Z,64.87
2018-08-04T03:43:11.265Z,65.47
2018-08-04T03:45:40.487Z,66.31
2018-08-04T03:48:10.639Z,66.19
2018-08-04T03:50:39.833Z,67.25
2018-08-04T03:53:09.022Z,67.12
2018-08-04T03:55:38.216Z,67.78
2018-08-04T03:58:07.615Z,67.03
2018-08-04T04:00:36.827Z,67.28
2018-08-04T04:03:05.999Z,68.29
2018-08-04T04:05:35.331Z,68.70
2018-08-04T04:08:04.679Z,68.97
2018-08-04T04:10:33.878Z,68.71
2018-08-04T04:13:03.090Z,68.50
2018-08-04T04:15:32.358Z,69.44
2018-08-04T04:18:01.644Z,68.44
2018-08-04T04:20:30.818Z,69.28
2018-08-04T04:22:59.997Z,68.65
2018-08-04T04:25:29.275Z,68.71
2018-08-04T04:27:58.468Z,69.43
2018-08-04T04:30:27.687Z,68.56
2018-08-04T04:32:56.882Z,69.10
2018-08-04T04:35:26.115Z,68.74
2018-08-04T04:37:55.302Z,68.23
2018-08-04T04:40:24.492Z,68.58
2018-08-04T04:42:53.691Z,68.58
2018-08-04T04:45:22.903Z,68.17
2018-08-04T04:47:52.074Z,68.29
2018-08-04T04:50:21.346Z,68.56
2018-08-04T04:52:50.757Z,67.96
2018-08-04T04:55:20.003Z,68.94
2018-08-04T04:57:49.395Z,67.74
2018-08-04T05:00:18.814Z,66.96
2018-08-04T05:02:47.994Z,65.85
2018-08-04T05:05:17.382Z,66.50
2018-08-04T05:07:46.567Z,66.42
2018-08-04T05:10:15.836Z,67.14
2018-08-04T05:12:45.315Z,66.93
2018-08-04T05:15:14.535Z,67.20
2018-08-04T05:17:43.838Z,66.78
2018-08-04T05:20:13.084Z,67.08
2018-08-04T05:22:42.611Z,64.55
2018-08-04T05:25:12.078Z,63.75
2018-08-04T05:27:41.278Z,64.33
2018-08-04T05:30:10.827Z,63.21
2018-08-04T05:32:40.038Z,62.51
2018-08-04T05:35:09.223Z,61.92
2018-08-04T05:37:38.835Z,61.87
2018-08-04T05:40:08.033Z,63.25
2018-08-04T05:42:37.280Z,62.12
2018-08-04T05:45:07.686Z,61.60
2018-08-04T05:47:36.891Z,60.75
2018-08-04T05:50:06.489Z,61.06
2018-08-04T05:52:35.967Z,58.11
2018-08-04T05:55:05.267Z,55.73
2018-08-04T05:57:34.699Z,51.72
2018-08-04T06:00:04.419Z,50.16
2018-08-04T06:02:33.827Z,49.74
2018-08-04T06:05:03.027Z,51.28
2018-08-04T06:07:32.235Z,50.67
2018-08-04T06:10:01.767Z,48.31
2018-08-04T06:12:31.335Z,45.02
2018-08-04T06:15:00.502Z,45.42
2018-08-04T06:17:29.734Z,45.64
2018-08-04T06:19:58.907Z,45.68
2018-08-04T06:22:28.119Z,46.72
2018-08-04T06:24:57.313Z,46.25
2018-08-04T06:27:26.502Z,46.28
2018-08-04T06:29:55.915Z,47.75
2018-08-04T06:32:25.235Z,50.13
2018-08-04T06:34:54.411Z,49.30
2018-08-04T06:37:23.911Z,48.78
2018-08-04T06:39:53.102Z,44.72
2018-08-04T06:42:22.655Z,41.97
2018-08-04T06:44:51.925Z,42.54
2018-08-04T06:47:21.106Z,42.60
2018-08-04T06:49:50.407Z,43.77
2018-08-04T06:52:19.687Z,43.14
2018-08-04T06:54:48.875Z,40.67
2018-08-04T06:57:18.419Z,37.23
2018-08-04T06:59:47.795Z,38.42
2018-08-04T07:02:17.002Z,38.04
2018-08-04T07:04:46.503Z,35.43
2018-08-04T07:07:15.762Z,34.97
2018-08-04T07:09:44.959Z,33.65
2018-08-04T07:12:15.139Z,34.98
2018-08-04T07:14:44.338Z,38.07
2018-08-04T07:17:13.831Z,37.95
2018-08-04T07:19:43.010Z,36.32
2018-08-04T07:22:12.423Z,33.32
2018-08-04T07:24:41.610Z,32.25
2018-08-04T07:27:10.840Z,31.49
2018-08-04T07:29:40.034Z,30.20
2018-08-04T07:32:09.231Z,28.35
2018-08-04T07:34:38.447Z,28.28
2018-08-04T07:37:08.144Z,28.95
2018-08-04T07:39:37.307Z,26.75
2018-08-04T07:42:06.818Z,28.70
2018-08-04T07:44:36.024Z,27.76
2018-08-04T07:47:05.255Z,27.14
2018-08-04T07:49:34.476Z,26.91
2018-08-04T07:52:03.967Z,25.99
2018-08-04T07:54:33.306Z,25.19
2018-08-04T07:57:02.863Z,23.56
2018-08-04T07:59:32.271Z,22.79
2018-08-04T08:02:01.658Z,23.41
2018-08-04T08:04:31.248Z,26.46
2018-08-04T08:07:00.438Z,25.64
2018-08-04T08:09:29.631Z,25.48
2018-08-04T08:11:58.834Z,23.55
2018-08-04T08:14:28.076Z,23.50
2018-08-04T08:16:57.254Z,24.87
2018-08-04T08:19:26.587Z,27.85
2018-08-04T08:21:55.674Z,29.79
2018-08-04T08:24:25.627Z,32.32
2018-08-04T08:26:55.174Z,32.16
2018-08-04T08:29:24.379Z,32.41
2018-08-04T08:31:53.587Z,33.17
2018-08-04T08:34:23.022Z,32.68
2018-08-04T08:36:52.207Z,35.24
2018-08-04T08:39:21.416Z,35.44
2018-08-04T08:41:50.606Z,35.55
2018-08-04T08:44:20.020Z,36.96
2018-08-04T08:46:49.981Z,34.37
2018-08-04T08:49:19.153Z,29.96
2018-08-04T08:51:48.517Z,25.12
2018-08-04T08:54:18.047Z,21.54
2018-08-04T08:56:47.235Z,20.66
2018-08-04T08:59:16.563Z,20.87
2018-08-04T09:01:45.762Z,19.84
2018-08-04T09:04:15.063Z,18.49
2018-08-04T09:06:44.839Z,18.75
2018-08-04T09:09:14.031Z,18.80
2018-08-04T09:11:43.210Z,18.86
2018-08-04T09:14:12.423Z,18.17
2018-08-04T09:16:41.603Z,17.61
2018-08-04T09:19:10.786Z,18.06
2018-08-04T09:21:40.011Z,18.15
2018-08-04T09:24:09.534Z,17.84
2018-08-04T09:26:39.465Z,17.43
2018-08-04T09:29:08.647Z,17.62
2018-08-04T09:31:38.327Z,17.98
2018-08-04T09:34:08.367Z,17.73
2018-08-04T09:36:37.848Z,19.25
2018-08-04T09:39:09.866Z,19.31
2018-08-04T09:41:39.659Z,19.24
2018-08-04T09:44:08.875Z,20.01
2018-08-04T09:46:38.834Z,19.18
2018-08-04T09:49:08.046Z,17.59
2018-08-04T09:51:37.291Z,18.21
2018-08-04T09:54:07.103Z,16.79
2018-08-04T09:56:36.268Z,16.89
2018-08-04T09:59:05.475Z,19.62
2018-08-04T10:01:36.703Z,20.52
2018-08-04T10:04:06.322Z,19.95
2018-08-04T10:06:36.023Z,20.45
2018-08-04T10:09:07.942Z,20.17
2018-08-04T10:11:37.115Z,18.39
2018-08-04T10:14:06.414Z,18.34
2018-08-04T10:16:35.599Z,17.94
2018-08-04T10:19:04.822Z,18.45
2018-08-04T10:21:34.040Z,20.10
2018-08-04T10:24:03.214Z,21.35
2018-08-04T10:26:32.414Z,19.47
2018-08-04T10:29:01.622Z,21.11
2018-08-04T10:31:31.402Z,21.97
2018-08-04T10:34:00.627Z,23.00
2018-08-04T10:36:29.802Z,24.89
2018-08-04T10:38:59.071Z,24.69
2018-08-04T10:41:28.235Z,22.96
2018-08-04T10:43:57.499Z,22.73
2018-08-04T10:46:26.755Z,20.10
2018-08-04T10:48:55.967Z,18.35
2018-08-04T10:51:25.739Z,19.07
2018-08-04T10:53:54.977Z,18.19
2018-08-04T10:56:24.345Z,19.29
2018-08-04T10:58:53.543Z,18.22
2018-08-04T11:01:23.367Z,18.11
2018-08-04T11:03:53.434Z,17.74
2018-08-04T11:06:22.575Z,18.09
2018-08-04T11:08:51.776Z,18.28
2018-08-04T11:11:20.959Z,17.48
2018-08-04T11:13:50.727Z,16.90
2018-08-04T11:16:20.148Z,16.40
2018-08-04T11:18:49.310Z,17.93
2018-08-04T11:21:18.514Z,17.42
2018-08-04T11:23:47.836Z,16.86
2018-08-04T11:26:17.186Z,18.19
2018-08-04T11:28:46.359Z,17.55
2018-08-04T11:31:15.550Z,17.22
2018-08-04T11:33:45.266Z,16.45
2018-08-04T11:36:14.451Z,17.23
2018-08-04T11:38:43.647Z,16.13
2018-08-04T11:41:13.363Z,16.05
2018-08-04T11:43:42.642Z,16.72
2018-08-04T11:46:12.085Z,17.68
2018-08-04T11:48:41.875Z,17.47
2018-08-04T11:51:11.776Z,16.38
2018-08-04T11:53:41.013Z,15.56
2018-08-04T11:56:10.511Z,15.59
2018-08-04T11:58:39.687Z,16.33
2018-08-04T12:01:08.915Z,16.78
2018-08-04T12:03:38.131Z,17.05
2018-08-04T12:06:07.435Z,16.12
2018-08-04T12:08:36.626Z,16.38
2018-08-04T12:11:05.951Z,17.62
2018-08-04T12:13:35.127Z,17.99
2018-08-04T12:16:04.395Z,17.83
2018-08-04T12:18:33.578Z,17.80
2018-08-04T12:21:02.979Z,17.42
2018-08-04T12:23:32.442Z,16.64
2018-08-04T12:26:02.216Z,16.74
2018-08-04T12:28:31.395Z,17.28
2018-08-04T12:31:00.767Z,18.37
2018-08-04T12:33:29.947Z,18.00
2018-08-04T12:35:59.353Z,16.65
2018-08-04T12:38:28.623Z,16.11
2018-08-04T12:40:57.835Z,16.18
2018-08-04T12:43:27.386Z,16.63
2018-08-04T12:45:56.791Z,16.37
2018-08-04T12:48:28.783Z,15.97
2018-08-04T12:51:00.063Z,16.65
2018-08-04T12:53:29.583Z,17.11
2018-08-04T12:55:59.687Z,16.97
2018-08-04T12:58:28.911Z,17.53
2018-08-04T13:00:58.140Z,17.00
2018-08-04T13:03:27.342Z,17.52
2018-08-04T13:05:56.736Z,19.79
2018-08-04T13:08:25.908Z,17.82
2018-08-04T13:10:55.111Z,18.92
2018-08-04T13:13:24.281Z,19.34
2018-08-04T13:15:54.036Z,18.28
2018-08-04T13:18:23.265Z,18.42
2018-08-04T13:20:52.725Z,17.75
2018-08-04T13:23:21.907Z,17.85
2018-08-04T13:25:51.143Z,17.96
2018-08-04T13:28:20.522Z,18.26
2018-08-04T13:30:49.923Z,18.19
2018-08-04T13:33:19.378Z,19.04
2018-08-04T13:35:48.659Z,19.50
2018-08-04T13:38:18.126Z,17.74
2018-08-04T13:40:47.323Z,18.49
2018-08-04T13:43:16.718Z,18.37
2018-08-04T13:45:46.131Z,19.36
2018-08-04T13:48:15.327Z,18.81
2018-08-04T13:50:44.556Z,18.09
2018-08-04T13:53:13.739Z,17.35
2018-08-04T13:55:42.974Z,17.19
2018-08-04T13:58:12.179Z,17.42
2018-08-04T14:00:42.055Z,17.16
2018-08-04T14:03:11.238Z,17.22
2018-08-04T14:05:40.976Z,16.85
2018-08-04T14:08:10.193Z,18.20
2018-08-04T14:10:39.400Z,17.64
2018-08-04T14:13:09.055Z,18.75
2018-08-04T14:15:38.250Z,17.41
2018-08-04T14:18:07.471Z,17.48
2018-08-04T14:20:37.015Z,18.10
2018-08-04T14:23:06.415Z,17.53
2018-08-04T14:25:35.622Z,17.90
2018-08-04T14:28:04.843Z,18.31
2018-08-04T14:30:34.239Z,18.20
2018-08-04T14:33:04.321Z,19.35
2018-08-04T14:35:33.698Z,18.72
2018-08-04T14:38:02.895Z,18.14
2018-08-04T14:40:32.113Z,18.33
2018-08-04T14:43:01.296Z,18.50
2018-08-04T14:45:30.454Z,18.75
2018-08-04T14:47:59.698Z,19.04
2018-08-04T14:50:29.139Z,19.48
2018-08-04T14:52:58.299Z,19.27
2018-08-04T14:55:27.498Z,19.35
2018-08-04T14:57:56.723Z,19.77
2018-08-04T15:00:27.831Z,19.18
2018-08-04T15:02:58.016Z,19.23
2018-08-04T15:05:27.817Z,19.30
2018-08-04T15:07:58.182Z,20.09
2018-08-04T15:10:27.342Z,19.74
2018-08-04T15:12:56.556Z,20.62
2018-08-04T15:15:25.811Z,20.61
2018-08-04T15:17:55.003Z,20.28
2018-08-04T15:20:24.283Z,20.80
2018-08-04T15:22:53.510Z,21.39
2018-08-04T15:25:22.739Z,21.93
2018-08-04T15:27:52.660Z,21.70
2018-08-04T15:30:21.860Z,21.14
2018-08-04T15:32:51.051Z,20.84
2018-08-04T15:35:20.387Z,20.77
2018-08-04T15:37:50.426Z,21.49
2018-08-04T15:40:19.711Z,22.51
2018-08-04T15:42:48.943Z,22.49
2018-08-04T15:45:19.031Z,22.22
2018-08-04T15:47:48.338Z,22.20
2018-08-04T15:50:17.507Z,22.24
2018-08-04T15:52:46.729Z,23.19
2018-08-04T15:55:15.932Z,23.58
2018-08-04T15:57:45.143Z,23.85
2018-08-04T16:00:14.348Z,22.27
2018-08-04T16:02:43.883Z,22.34
2018-08-04T16:05:13.578Z,23.83
2018-08-04T16:07:42.760Z,24.63
2018-08-04T16:10:12.851Z,23.54
2018-08-04T16:12:42.530Z,23.50
2018-08-04T16:15:11.787Z,23.22
2018-08-04T16:17:41.256Z,24.05
2018-08-04T16:20:14.040Z,24.11
2018-08-04T16:22:44.197Z,24.14
2018-08-04T16:25:14.401Z,23.17
2018-08-04T16:27:44.835Z,23.68
2018-08-04T16:30:14.014Z,24.74
2018-08-04T16:32:43.256Z,24.03
2018-08-04T16:35:12.421Z,24.19
2018-08-04T16:37:41.629Z,24.55
2018-08-04T16:40:11.063Z,24.04
2018-08-04T16:42:40.275Z,24.90
2018-08-04T16:45:09.479Z,24.61
2018-08-04T16:47:39.034Z,25.00
2018-08-04T16:50:08.475Z,25.32
2018-08-04T16:52:37.780Z,25.10
2018-08-04T16:55:06.987Z,24.40
2018-08-04T16:57:36.192Z,25.30
2018-08-04T17:00:06.090Z,24.03
2018-08-04T17:02:35.311Z,24.58
2018-08-04T17:05:04.655Z,24.32
2018-08-04T17:07:34.490Z,24.63
2018-08-04T17:10:03.679Z,25.33
2018-08-04T17:12:32.898Z,24.06
2018-08-04T17:15:03.657Z,24.39
2018-08-04T17:17:33.542Z,25.58
2018-08-04T17:20:02.987Z,25.36
2018-08-04T17:22:32.221Z,26.20
2018-08-04T17:25:01.880Z,26.15
2018-08-04T17:27:31.351Z,24.67
2018-08-04T17:30:00.663Z,25.90
2018-08-04T17:32:29.926Z,26.39
2018-08-04T17:34:59.150Z,26.52
2018-08-04T17:37:28.402Z,25.83
2018-08-04T17:39:57.638Z,26.67
2018-08-04T17:42:26.846Z,26.11
2018-08-04T17:44:56.320Z,25.45
2018-08-04T17:47:25.528Z,25.45
2018-08-04T17:49:55.439Z,27.26
2018-08-04T17:52:24.643Z,26.24
2018-08-04T17:54:53.930Z,26.58
2018-08-04T17:57:23.288Z,27.46
2018-08-04T17:59:53.167Z,27.11
2018-08-04T18:02:22.374Z,27.29
2018-08-04T18:04:51.570Z,27.45
2018-08-04T18:07:20.791Z,27.51
2018-08-04T18:09:49.944Z,27.59
2018-08-04T18:12:19.994Z,27.92
2018-08-04T18:14:49.863Z,28.33
2018-08-04T18:17:19.817Z,29.33
2018-08-04T18:19:49.710Z,29.08
2018-08-04T18:22:19.287Z,30.32
2018-08-04T18:24:49.679Z,29.91
2018-08-04T18:27:18.912Z,30.11
2018-08-04T18:29:48.210Z,30.60
2018-08-04T18:32:17.406Z,30.91
2018-08-04T18:34:46.699Z,30.88
2018-08-04T18:37:15.883Z,31.45
2018-08-04T18:39:45.083Z,31.03
2018-08-04T18:42:15.688Z,31.56
2018-08-04T18:44:45.228Z,32.31
2018-08-04T18:47:14.319Z,32.96
2018-08-04T18:49:44.643Z,34.56
2018-08-04T18:52:13.843Z,32.98
2018-08-04T18:54:43.043Z,32.85
2018-08-04T18:57:12.588Z,33.33
2018-08-04T18:59:41.829Z,34.53
2018-08-04T19:02:10.979Z,34.98
2018-08-04T19:04:40.183Z,35.24
2018-08-04T19:07:09.579Z,35.77
2018-08-04T19:09:38.771Z,35.44
2018-08-04T19:12:08.673Z,35.71
2018-08-04T19:14:37.858Z,35.25
2018-08-04T19:17:07.043Z,35.24
2018-08-04T19:19:36.242Z,36.58
2018-08-04T19:22:05.679Z,36.49
2018-08-04T19:24:35.158Z,37.47
2018-08-04T19:27:05.214Z,37.77
2018-08-04T19:29:34.436Z,38.17
2018-08-04T19:32:04.291Z,38.39
2018-08-04T19:34:33.482Z,37.41
2018-08-04T19:37:02.867Z,38.70
2018-08-04T19:39:32.286Z,38.87
2018-08-04T19:42:02.411Z,38.52
2018-08-04T19:44:32.134Z,38.59
2018-08-04T19:47:01.600Z,38.90
2018-08-04T19:49:30.802Z,39.39
2018-08-04T19:51:59.985Z,39.15
2018-08-04T19:54:29.186Z,39.76
2018-08-04T19:56:58.567Z,39.72
2018-08-04T19:59:27.766Z,40.58
2018-08-04T20:01:56.936Z,41.20
2018-08-04T20:04:26.186Z,41.47
2018-08-04T20:06:55.359Z,41.31
2018-08-04T20:09:24.819Z,42.59
2018-08-04T20:11:55.262Z,43.16
2018-08-04T20:14:24.924Z,42.24
2018-08-04T20:16:54.122Z,42.91
2018-08-04T20:19:23.466Z,42.21
2018-08-04T20:21:53.333Z,42.93
2018-08-04T20:24:22.545Z,44.18
2018-08-04T20:26:52.298Z,44.61
2018-08-04T20:29:21.828Z,44.97
2018-08-04T20:31:50.979Z,45.72
2018-08-04T20:34:20.499Z,45.47
2018-08-04T20:36:50.104Z,46.43
2018-08-04T20:39:19.306Z,45.59
2018-08-04T20:41:48.495Z,45.91
2018-08-04T20:44:17.698Z,46.93
2018-08-04T20:46:46.900Z,48.00
2018-08-04T20:49:16.133Z,48.08
2018-08-04T20:51:45.543Z,46.99
2018-08-04T20:54:14.751Z,47.52
2018-08-04T20:56:44.348Z,48.37
2018-08-04T20:59:13.579Z,47.70
2018-08-04T21:01:49.320Z,47.47
2018-08-04T21:04:18.851Z,47.39
2018-08-04T21:06:48.436Z,48.18
2018-08-04T21:09:17.627Z,48.13
2018-08-04T21:11:52.711Z,49.07
2018-08-04T21:14:23.051Z,48.52
2018-08-04T21:16:53.537Z,48.97
2018-08-04T21:19:23.470Z,47.76
2018-08-04T21:21:52.707Z,48.84
2018-08-04T21:24:23.115Z,48.15
2018-08-04T21:26:53.195Z,48.46
2018-08-04T21:29:23.335Z,48.27
2018-08-04T21:31:52.568Z,48.53
2018-08-04T21:34:22.017Z,48.15
2018-08-04T21:36:51.400Z,48.39
2018-08-04T21:39:20.951Z,48.48
2018-08-04T21:41:50.131Z,48.35
2018-08-04T21:44:19.360Z,49.59
2018-08-04T21:46:50.468Z,49.29
2018-08-04T21:49:20.473Z,49.02
2018-08-04T21:51:50.607Z,49.01
2018-08-04T21:54:20.322Z,49.01
2018-08-04T21:56:49.214Z,50.04
2018-08-04T21:59:18.615Z,49.43
2018-08-04T22:01:53.902Z,49.24
2018-08-04T22:04:23.096Z,50.47
2018-08-04T22:08:01.636Z,50.49
2018-08-04T22:10:30.876Z,50.67
2018-08-04T22:13:00.109Z,50.93
2018-08-04T22:15:29.304Z,51.23
2018-08-04T22:17:58.546Z,51.31
2018-08-04T22:20:28.490Z,51.59
2018-08-04T22:22:57.650Z,52.23
2018-08-04T22:25:28.555Z,51.93
2018-08-04T22:27:58.306Z,52.70
2018-08-04T22:30:28.530Z,52.70
2018-08-04T22:32:57.843Z,53.41
2018-08-04T22:35:28.386Z,53.62
2018-08-04T22:37:57.562Z,53.99
2018-08-04T22:40:27.039Z,54.00
2018-08-04T22:42:56.238Z,54.16
2018-08-04T22:45:47.122Z,54.46
2018-08-04T22:48:16.346Z,55.38
2018-08-04T22:50:46.435Z,55.28
2018-08-04T22:53:15.840Z,55.97
2018-08-04T22:55:45.052Z,55.90
2018-08-04T22:58:14.758Z,56.44
2018-08-04T23:00:44.663Z,55.88
2018-08-04T23:03:14.375Z,56.29
2018-08-04T23:05:43.580Z,57.45
2018-08-04T23:08:13.480Z,57.19
2018-08-04T23:10:43.635Z,58.11
2018-08-04T23:13:13.202Z,57.47
2018-08-04T23:15:42.989Z,57.80
2018-08-04T23:18:12.291Z,58.50
2018-08-04T23:20:41.743Z,58.55
2018-08-04T23:23:11.955Z,59.16
2018-08-04T23:25:41.163Z,58.63
2018-08-04T23:28:10.755Z,59.20
2018-08-04T23:30:40.534Z,60.21
2018-08-04T23:33:09.718Z,59.91
2018-08-04T23:35:39.123Z,60.14
2018-08-04T23:38:08.522Z,60.22
2018-08-04T23:40:37.727Z,60.33
2018-08-04T23:43:06.966Z,61.75
2018-08-04T23:45:36.260Z,61.65
2018-08-04T23:48:05.430Z,61.24
2018-08-04T23:50:35.000Z,61.69
2018-08-04T23:53:05.108Z,61.99
2018-08-04T23:55:34.839Z,62.53
2018-08-04T23:58:04.488Z,62.85
